sensor_id;sensor_type;location;lat;lon;timestamp;temperature;humidity
54938;DHT22;52756;52.826;6.214;2023-03-14T00:02:03;10.00;78.70
54938;DHT22;52756;52.826;6.214;2023-03-14T00:04:29;9.90;78.60
54938;DHT22;52756;52.826;6.214;2023-03-14T00:06:54;10.00;78.70
54938;DHT22;52756;52.826;6.214;2023-03-14T00:09:20;10.00;78.60
54938;DHT22;52756;52.826;6.214;2023-03-14T00:11:46;10.00;78.60
54938;DHT22;52756;52.826;6.214;2023-03-14T00:14:11;10.10;78.60
54938;DHT22;52756;52.826;6.214;2023-03-14T00:16:37;10.10;78.50
54938;DHT22;52756;52.826;6.214;2023-03-14T00:19:03;10.10;78.50
54938;DHT22;52756;52.826;6.214;2023-03-14T00:21:28;10.10;78.50
54938;DHT22;52756;52.826;6.214;2023-03-14T00:23:54;10.10;78.50
54938;DHT22;52756;52.826;6.214;2023-03-14T00:26:21;10.10;78.50
54938;DHT22;52756;52.826;6.214;2023-03-14T00:28:51;10.20;78.90
54938;DHT22;52756;52.826;6.214;2023-03-14T00:31:17;10.20;78.40
54938;DHT22;52756;52.826;6.214;2023-03-14T00:33:44;10.20;78.40
54938;DHT22;52756;52.826;6.214;2023-03-14T00:36:13;10.20;78.30
54938;DHT22;52756;52.826;6.214;2023-03-14T00:38:40;10.20;78.30
54938;DHT22;52756;52.826;6.214;2023-03-14T00:41:08;10.20;78.20
54938;DHT22;52756;52.826;6.214;2023-03-14T00:43:34;10.20;78.10
54938;DHT22;52756;52.826;6.214;2023-03-14T00:46:00;10.30;78.00
54938;DHT22;52756;52.826;6.214;2023-03-14T00:48:26;10.30;78.00
54938;DHT22;52756;52.826;6.214;2023-03-14T00:50:51;10.30;77.80
54938;DHT22;52756;52.826;6.214;2023-03-14T00:53:17;10.40;77.80
54938;DHT22;52756;52.826;6.214;2023-03-14T00:55:44;10.40;77.70
54938;DHT22;52756;52.826;6.214;2023-03-14T00:58:11;10.40;78.00
54938;DHT22;52756;52.826;6.214;2023-03-14T01:00:38;10.40;77.50
54938;DHT22;52756;52.826;6.214;2023-03-14T01:03:04;10.50;77.40
54938;DHT22;52756;52.826;6.214;2023-03-14T01:05:30;10.50;77.30
54938;DHT22;52756;52.826;6.214;2023-03-14T01:07:57;10.50;77.20
54938;DHT22;52756;52.826;6.214;2023-03-14T01:10:23;10.50;77.00
54938;DHT22;52756;52.826;6.214;2023-03-14T01:12:49;10.50;76.90
54938;DHT22;52756;52.826;6.214;2023-03-14T01:15:14;10.50;76.90
54938;DHT22;52756;52.826;6.214;2023-03-14T01:17:40;10.50;76.90
54938;DHT22;52756;52.826;6.214;2023-03-14T01:20:08;10.50;76.80
54938;DHT22;52756;52.826;6.214;2023-03-14T01:22:35;10.50;76.80
54938;DHT22;52756;52.826;6.214;2023-03-14T01:25:01;10.50;76.70
54938;DHT22;52756;52.826;6.214;2023-03-14T01:27:27;10.50;76.70
54938;DHT22;52756;52.826;6.214;2023-03-14T01:29:53;10.50;76.70
54938;DHT22;52756;52.826;6.214;2023-03-14T01:32:18;10.50;76.70
54938;DHT22;52756;52.826;6.214;2023-03-14T01:34:44;10.50;76.70
54938;DHT22;52756;52.826;6.214;2023-03-14T01:37:10;10.40;76.70
54938;DHT22;52756;52.826;6.214;2023-03-14T01:39:37;10.50;76.90
54938;DHT22;52756;52.826;6.214;2023-03-14T01:42:03;10.40;76.90
54938;DHT22;52756;52.826;6.214;2023-03-14T01:47:14;10.40;77.00
54938;DHT22;52756;52.826;6.214;2023-03-14T01:49:40;10.50;77.20
54938;DHT22;52756;52.826;6.214;2023-03-14T01:52:11;10.40;77.20
54938;DHT22;52756;52.826;6.214;2023-03-14T01:54:39;10.40;77.20
54938;DHT22;52756;52.826;6.214;2023-03-14T01:59:45;10.40;77.20
54938;DHT22;52756;52.826;6.214;2023-03-14T02:02:12;10.40;77.20
54938;DHT22;52756;52.826;6.214;2023-03-14T02:04:38;10.50;77.30
54938;DHT22;52756;52.826;6.214;2023-03-14T02:07:14;10.40;77.30
54938;DHT22;52756;52.826;6.214;2023-03-14T02:09:41;10.50;77.70
54938;DHT22;52756;52.826;6.214;2023-03-14T02:12:09;10.40;77.30
54938;DHT22;52756;52.826;6.214;2023-03-14T02:14:36;10.50;77.40
54938;DHT22;52756;52.826;6.214;2023-03-14T02:17:04;10.40;77.20
54938;DHT22;52756;52.826;6.214;2023-03-14T02:22:15;10.50;77.20
54938;DHT22;52756;52.826;6.214;2023-03-14T02:27:41;10.40;77.10
54938;DHT22;52756;52.826;6.214;2023-03-14T02:30:11;10.40;77.20
54938;DHT22;52756;52.826;6.214;2023-03-14T02:32:43;10.50;77.20
54938;DHT22;52756;52.826;6.214;2023-03-14T02:35:12;10.50;77.30
54938;DHT22;52756;52.826;6.214;2023-03-14T02:37:48;10.50;77.30
54938;DHT22;52756;52.826;6.214;2023-03-14T02:40:15;10.40;77.40
54938;DHT22;52756;52.826;6.214;2023-03-14T02:42:40;10.40;77.90
54938;DHT22;52756;52.826;6.214;2023-03-14T02:47:37;10.40;78.50
54938;DHT22;52756;52.826;6.214;2023-03-14T02:50:10;10.50;78.90
54938;DHT22;52756;52.826;6.214;2023-03-14T02:52:37;10.40;79.30
54938;DHT22;52756;52.826;6.214;2023-03-14T02:55:03;10.40;79.50
54938;DHT22;52756;52.826;6.214;2023-03-14T02:57:29;10.40;79.90
54938;DHT22;52756;52.826;6.214;2023-03-14T02:59:58;10.40;80.00
54938;DHT22;52756;52.826;6.214;2023-03-14T03:02:25;10.30;80.20
54938;DHT22;52756;52.826;6.214;2023-03-14T03:04:51;10.30;80.40
54938;DHT22;52756;52.826;6.214;2023-03-14T03:07:16;10.30;80.70
54938;DHT22;52756;52.826;6.214;2023-03-14T03:09:42;10.30;80.80
54938;DHT22;52756;52.826;6.214;2023-03-14T03:12:08;10.30;80.90
54938;DHT22;52756;52.826;6.214;2023-03-14T03:14:34;10.30;81.00
54938;DHT22;52756;52.826;6.214;2023-03-14T03:16:59;10.30;81.30
54938;DHT22;52756;52.826;6.214;2023-03-14T03:19:25;10.20;81.30
54938;DHT22;52756;52.826;6.214;2023-03-14T03:21:50;10.20;81.40
54938;DHT22;52756;52.826;6.214;2023-03-14T03:24:16;10.20;81.60
54938;DHT22;52756;52.826;6.214;2023-03-14T03:26:42;10.20;81.70
54938;DHT22;52756;52.826;6.214;2023-03-14T03:29:07;10.20;81.80
54938;DHT22;52756;52.826;6.214;2023-03-14T03:31:33;10.10;81.90
54938;DHT22;52756;52.826;6.214;2023-03-14T03:33:59;10.10;82.00
54938;DHT22;52756;52.826;6.214;2023-03-14T03:36:26;10.10;82.10
54938;DHT22;52756;52.826;6.214;2023-03-14T03:38:52;10.10;82.20
54938;DHT22;52756;52.826;6.214;2023-03-14T03:41:17;10.10;82.20
54938;DHT22;52756;52.826;6.214;2023-03-14T03:43:43;10.10;82.40
54938;DHT22;52756;52.826;6.214;2023-03-14T03:46:09;10.10;82.50
54938;DHT22;52756;52.826;6.214;2023-03-14T03:48:35;10.10;82.70
54938;DHT22;52756;52.826;6.214;2023-03-14T03:51:00;10.10;82.90
54938;DHT22;52756;52.826;6.214;2023-03-14T03:53:26;10.10;83.10
54938;DHT22;52756;52.826;6.214;2023-03-14T03:55:52;10.10;83.20
54938;DHT22;52756;52.826;6.214;2023-03-14T03:58:17;10.10;83.30
54938;DHT22;52756;52.826;6.214;2023-03-14T04:00:43;10.00;83.30
54938;DHT22;52756;52.826;6.214;2023-03-14T04:03:09;10.00;83.40
54938;DHT22;52756;52.826;6.214;2023-03-14T04:05:35;10.00;83.50
54938;DHT22;52756;52.826;6.214;2023-03-14T04:08:01;10.00;83.70
54938;DHT22;52756;52.826;6.214;2023-03-14T04:10:27;10.00;83.90
54938;DHT22;52756;52.826;6.214;2023-03-14T04:12:53;10.00;83.90
54938;DHT22;52756;52.826;6.214;2023-03-14T04:15:18;10.00;83.90
54938;DHT22;52756;52.826;6.214;2023-03-14T04:17:44;10.00;84.00
54938;DHT22;52756;52.826;6.214;2023-03-14T04:20:10;10.00;84.00
54938;DHT22;52756;52.826;6.214;2023-03-14T04:22:37;10.00;84.10
54938;DHT22;52756;52.826;6.214;2023-03-14T04:25:04;10.00;84.20
54938;DHT22;52756;52.826;6.214;2023-03-14T04:27:30;9.90;84.10
54938;DHT22;52756;52.826;6.214;2023-03-14T04:29:55;9.90;84.20
54938;DHT22;52756;52.826;6.214;2023-03-14T04:32:21;9.90;84.30
54938;DHT22;52756;52.826;6.214;2023-03-14T04:34:47;9.90;84.20
54938;DHT22;52756;52.826;6.214;2023-03-14T04:37:12;9.90;84.30
54938;DHT22;52756;52.826;6.214;2023-03-14T04:39:38;9.90;84.30
54938;DHT22;52756;52.826;6.214;2023-03-14T04:42:04;9.90;84.30
54938;DHT22;52756;52.826;6.214;2023-03-14T04:44:30;9.90;84.30
54938;DHT22;52756;52.826;6.214;2023-03-14T04:46:55;9.90;84.40
54938;DHT22;52756;52.826;6.214;2023-03-14T04:49:21;9.90;84.50
54938;DHT22;52756;52.826;6.214;2023-03-14T04:51:47;9.90;84.50
54938;DHT22;52756;52.826;6.214;2023-03-14T04:54:12;9.90;84.50
54938;DHT22;52756;52.826;6.214;2023-03-14T04:56:38;9.90;84.50
54938;DHT22;52756;52.826;6.214;2023-03-14T04:59:04;9.90;84.50
54938;DHT22;52756;52.826;6.214;2023-03-14T05:01:30;9.90;84.60
54938;DHT22;52756;52.826;6.214;2023-03-14T05:03:56;9.80;84.50
54938;DHT22;52756;52.826;6.214;2023-03-14T05:06:21;9.80;84.50
54938;DHT22;52756;52.826;6.214;2023-03-14T05:08:47;9.90;84.50
54938;DHT22;52756;52.826;6.214;2023-03-14T05:11:13;9.90;84.50
54938;DHT22;52756;52.826;6.214;2023-03-14T05:13:39;9.90;84.50
54938;DHT22;52756;52.826;6.214;2023-03-14T05:16:10;9.90;84.40
54938;DHT22;52756;52.826;6.214;2023-03-14T05:18:36;9.90;84.50
54938;DHT22;52756;52.826;6.214;2023-03-14T05:21:02;9.90;84.50
54938;DHT22;52756;52.826;6.214;2023-03-14T05:23:28;9.90;84.70
54938;DHT22;52756;52.826;6.214;2023-03-14T05:25:54;9.90;84.70
54938;DHT22;52756;52.826;6.214;2023-03-14T05:28:19;9.80;84.70
54938;DHT22;52756;52.826;6.214;2023-03-14T05:30:46;9.90;84.80
54938;DHT22;52756;52.826;6.214;2023-03-14T05:33:11;9.90;85.00
54938;DHT22;52756;52.826;6.214;2023-03-14T05:35:37;9.90;85.10
54938;DHT22;52756;52.826;6.214;2023-03-14T05:38:03;9.90;85.10
54938;DHT22;52756;52.826;6.214;2023-03-14T05:40:28;9.90;85.20
54938;DHT22;52756;52.826;6.214;2023-03-14T05:42:54;9.90;85.30
54938;DHT22;52756;52.826;6.214;2023-03-14T05:45:20;9.90;85.50
54938;DHT22;52756;52.826;6.214;2023-03-14T05:47:45;9.80;85.40
54938;DHT22;52756;52.826;6.214;2023-03-14T05:50:11;9.80;85.50
54938;DHT22;52756;52.826;6.214;2023-03-14T05:52:37;9.80;85.50
54938;DHT22;52756;52.826;6.214;2023-03-14T05:55:03;9.80;85.70
54938;DHT22;52756;52.826;6.214;2023-03-14T05:57:29;9.80;85.70
54938;DHT22;52756;52.826;6.214;2023-03-14T05:59:55;9.80;85.80
54938;DHT22;52756;52.826;6.214;2023-03-14T06:02:21;9.80;85.80
54938;DHT22;52756;52.826;6.214;2023-03-14T06:04:46;9.80;85.80
54938;DHT22;52756;52.826;6.214;2023-03-14T06:07:12;9.80;85.90
54938;DHT22;52756;52.826;6.214;2023-03-14T06:09:38;9.80;85.90
54938;DHT22;52756;52.826;6.214;2023-03-14T06:12:05;9.80;86.00
54938;DHT22;52756;52.826;6.214;2023-03-14T06:14:31;9.80;86.00
54938;DHT22;52756;52.826;6.214;2023-03-14T06:16:57;9.70;86.00
54938;DHT22;52756;52.826;6.214;2023-03-14T06:19:25;9.80;86.00
54938;DHT22;52756;52.826;6.214;2023-03-14T06:21:51;9.80;86.10
54938;DHT22;52756;52.826;6.214;2023-03-14T06:24:17;9.80;86.00
54938;DHT22;52756;52.826;6.214;2023-03-14T06:26:42;9.80;86.10
54938;DHT22;52756;52.826;6.214;2023-03-14T06:29:08;9.80;86.10
54938;DHT22;52756;52.826;6.214;2023-03-14T06:31:34;9.80;86.20
54938;DHT22;52756;52.826;6.214;2023-03-14T06:34:00;9.80;86.20
54938;DHT22;52756;52.826;6.214;2023-03-14T06:36:26;9.70;86.20
54938;DHT22;52756;52.826;6.214;2023-03-14T06:38:51;9.70;86.10
54938;DHT22;52756;52.826;6.214;2023-03-14T06:41:17;9.70;86.20
54938;DHT22;52756;52.826;6.214;2023-03-14T06:43:43;9.70;86.30
54938;DHT22;52756;52.826;6.214;2023-03-14T06:46:09;9.70;86.30
54938;DHT22;52756;52.826;6.214;2023-03-14T06:48:35;9.70;86.30
54938;DHT22;52756;52.826;6.214;2023-03-14T06:51:01;9.70;86.40
54938;DHT22;52756;52.826;6.214;2023-03-14T06:53:26;9.70;86.10
54938;DHT22;52756;52.826;6.214;2023-03-14T06:55:52;9.70;86.00
54938;DHT22;52756;52.826;6.214;2023-03-14T06:58:18;9.70;85.90
54938;DHT22;52756;52.826;6.214;2023-03-14T07:00:43;9.60;85.60
54938;DHT22;52756;52.826;6.214;2023-03-14T07:03:10;9.60;85.40
54938;DHT22;52756;52.826;6.214;2023-03-14T07:05:36;9.60;85.30
54938;DHT22;52756;52.826;6.214;2023-03-14T07:08:01;9.50;85.30
54938;DHT22;52756;52.826;6.214;2023-03-14T07:10:27;9.50;85.00
54938;DHT22;52756;52.826;6.214;2023-03-14T07:12:53;9.40;84.50
54938;DHT22;52756;52.826;6.214;2023-03-14T07:15:19;9.40;83.90
54938;DHT22;52756;52.826;6.214;2023-03-14T07:17:45;9.20;83.30
54938;DHT22;52756;52.826;6.214;2023-03-14T07:20:13;9.20;82.90
54938;DHT22;52756;52.826;6.214;2023-03-14T07:22:39;9.10;82.80
54938;DHT22;52756;52.826;6.214;2023-03-14T07:25:05;9.10;82.40
54938;DHT22;52756;52.826;6.214;2023-03-14T07:27:31;9.00;82.00
54938;DHT22;52756;52.826;6.214;2023-03-14T07:29:57;8.90;81.80
54938;DHT22;52756;52.826;6.214;2023-03-14T07:32:22;8.90;81.60
54938;DHT22;52756;52.826;6.214;2023-03-14T07:34:48;8.80;81.10
54938;DHT22;52756;52.826;6.214;2023-03-14T07:37:14;8.70;80.70
54938;DHT22;52756;52.826;6.214;2023-03-14T07:39:39;8.60;80.40
54938;DHT22;52756;52.826;6.214;2023-03-14T07:42:05;8.50;79.90
54938;DHT22;52756;52.826;6.214;2023-03-14T07:44:32;8.50;79.70
54938;DHT22;52756;52.826;6.214;2023-03-14T07:46:57;8.40;79.50
54938;DHT22;52756;52.826;6.214;2023-03-14T07:49:23;8.30;78.90
54938;DHT22;52756;52.826;6.214;2023-03-14T07:51:49;8.20;78.40
54938;DHT22;52756;52.826;6.214;2023-03-14T07:54:16;8.00;77.70
54938;DHT22;52756;52.826;6.214;2023-03-14T07:56:41;7.90;78.00
54938;DHT22;52756;52.826;6.214;2023-03-14T07:59:07;7.80;78.20
54938;DHT22;52756;52.826;6.214;2023-03-14T08:01:33;7.70;78.20
54938;DHT22;52756;52.826;6.214;2023-03-14T08:03:59;7.70;78.60
54938;DHT22;52756;52.826;6.214;2023-03-14T08:06:25;7.60;78.90
54938;DHT22;52756;52.826;6.214;2023-03-14T08:08:51;7.60;79.10
54938;DHT22;52756;52.826;6.214;2023-03-14T08:11:16;7.50;79.10
54938;DHT22;52756;52.826;6.214;2023-03-14T08:13:42;7.50;79.30
54938;DHT22;52756;52.826;6.214;2023-03-14T08:16:17;7.50;79.60
54938;DHT22;52756;52.826;6.214;2023-03-14T08:18:43;7.50;79.30
54938;DHT22;52756;52.826;6.214;2023-03-14T08:21:09;7.40;79.70
54938;DHT22;52756;52.826;6.214;2023-03-14T08:23:35;7.40;79.90
54938;DHT22;52756;52.826;6.214;2023-03-14T08:26:01;7.50;80.00
54938;DHT22;52756;52.826;6.214;2023-03-14T08:28:27;7.40;79.70
54938;DHT22;52756;52.826;6.214;2023-03-14T08:30:56;7.40;79.70
54938;DHT22;52756;52.826;6.214;2023-03-14T08:33:23;7.40;79.70
54938;DHT22;52756;52.826;6.214;2023-03-14T08:35:52;7.40;79.70
54938;DHT22;52756;52.826;6.214;2023-03-14T08:38:18;7.40;79.50
54938;DHT22;52756;52.826;6.214;2023-03-14T08:40:43;7.40;79.80
54938;DHT22;52756;52.826;6.214;2023-03-14T08:43:09;7.40;80.10
54938;DHT22;52756;52.826;6.214;2023-03-14T08:45:34;7.40;80.10
54938;DHT22;52756;52.826;6.214;2023-03-14T08:48:00;7.40;80.20
54938;DHT22;52756;52.826;6.214;2023-03-14T08:50:26;7.40;80.20
54938;DHT22;52756;52.826;6.214;2023-03-14T08:52:52;7.50;80.30
54938;DHT22;52756;52.826;6.214;2023-03-14T08:55:17;7.50;80.10
54938;DHT22;52756;52.826;6.214;2023-03-14T08:57:43;7.50;79.80
54938;DHT22;52756;52.826;6.214;2023-03-14T09:00:09;7.50;79.90
54938;DHT22;52756;52.826;6.214;2023-03-14T09:02:41;7.50;80.10
54938;DHT22;52756;52.826;6.214;2023-03-14T09:05:07;7.60;80.10
54938;DHT22;52756;52.826;6.214;2023-03-14T09:07:33;7.70;79.70
54938;DHT22;52756;52.826;6.214;2023-03-14T09:09:59;7.70;79.30
54938;DHT22;52756;52.826;6.214;2023-03-14T09:12:24;7.80;79.30
54938;DHT22;52756;52.826;6.214;2023-03-14T09:14:50;7.80;79.20
54938;DHT22;52756;52.826;6.214;2023-03-14T09:17:16;7.80;78.80
54938;DHT22;52756;52.826;6.214;2023-03-14T09:19:41;7.90;78.20
54938;DHT22;52756;52.826;6.214;2023-03-14T09:22:07;7.90;78.40
54938;DHT22;52756;52.826;6.214;2023-03-14T09:24:33;7.90;78.40
54938;DHT22;52756;52.826;6.214;2023-03-14T09:26:58;7.90;78.40
54938;DHT22;52756;52.826;6.214;2023-03-14T09:29:24;8.00;77.90
54938;DHT22;52756;52.826;6.214;2023-03-14T09:31:50;8.00;77.70
54938;DHT22;52756;52.826;6.214;2023-03-14T09:34:16;8.10;77.50
54938;DHT22;52756;52.826;6.214;2023-03-14T09:36:42;8.20;76.90
54938;DHT22;52756;52.826;6.214;2023-03-14T09:39:10;8.20;76.20
54938;DHT22;52756;52.826;6.214;2023-03-14T09:41:45;8.20;75.00
54938;DHT22;52756;52.826;6.214;2023-03-14T09:44:19;8.20;74.80
54938;DHT22;52756;52.826;6.214;2023-03-14T09:46:47;8.20;75.30
54938;DHT22;52756;52.826;6.214;2023-03-14T09:49:24;8.20;75.50
54938;DHT22;52756;52.826;6.214;2023-03-14T09:51:53;8.20;75.80
54938;DHT22;52756;52.826;6.214;2023-03-14T09:54:36;8.30;76.10
54938;DHT22;52756;52.826;6.214;2023-03-14T09:57:05;8.30;76.10
54938;DHT22;52756;52.826;6.214;2023-03-14T09:59:31;8.30;76.10
54938;DHT22;52756;52.826;6.214;2023-03-14T10:02:16;8.40;76.30
54938;DHT22;52756;52.826;6.214;2023-03-14T10:04:45;8.40;76.20
54938;DHT22;52756;52.826;6.214;2023-03-14T10:07:17;8.40;76.20
54938;DHT22;52756;52.826;6.214;2023-03-14T10:09:47;8.50;76.20
54938;DHT22;52756;52.826;6.214;2023-03-14T10:12:13;8.50;76.30
54938;DHT22;52756;52.826;6.214;2023-03-14T10:14:49;8.50;76.20
54938;DHT22;52756;52.826;6.214;2023-03-14T10:17:17;8.50;75.50
54938;DHT22;52756;52.826;6.214;2023-03-14T10:19:59;8.50;74.80
54938;DHT22;52756;52.826;6.214;2023-03-14T10:22:32;8.60;73.60
54938;DHT22;52756;52.826;6.214;2023-03-14T10:25:04;8.50;73.20
54938;DHT22;52756;52.826;6.214;2023-03-14T10:27:32;8.50;72.80
54938;DHT22;52756;52.826;6.214;2023-03-14T10:30:06;8.50;71.70
54938;DHT22;52756;52.826;6.214;2023-03-14T10:32:37;8.40;70.90
54938;DHT22;52756;52.826;6.214;2023-03-14T10:38:10;8.40;69.50
54938;DHT22;52756;52.826;6.214;2023-03-14T10:40:39;8.40;69.70
54938;DHT22;52756;52.826;6.214;2023-03-14T10:43:11;8.40;69.90
54938;DHT22;52756;52.826;6.214;2023-03-14T10:45:40;8.50;70.60
54938;DHT22;52756;52.826;6.214;2023-03-14T10:51:07;8.60;70.50
54938;DHT22;52756;52.826;6.214;2023-03-14T10:53:45;8.70;70.00
54938;DHT22;52756;52.826;6.214;2023-03-14T10:56:14;8.80;69.60
54938;DHT22;52756;52.826;6.214;2023-03-14T10:58:45;8.80;68.20
54938;DHT22;52756;52.826;6.214;2023-03-14T11:07:27;8.90;64.10
54938;DHT22;52756;52.826;6.214;2023-03-14T11:10:12;8.90;63.70
54938;DHT22;52756;52.826;6.214;2023-03-14T11:15:36;9.00;62.80
54938;DHT22;52756;52.826;6.214;2023-03-14T11:18:22;9.00;61.30
54938;DHT22;52756;52.826;6.214;2023-03-14T11:31:47;9.00;57.50
54938;DHT22;52756;52.826;6.214;2023-03-14T11:34:29;9.00;58.30
54938;DHT22;52756;52.826;6.214;2023-03-14T11:37:07;9.00;57.10
54938;DHT22;52756;52.826;6.214;2023-03-14T11:39:39;9.00;58.90
54938;DHT22;52756;52.826;6.214;2023-03-14T11:42:16;9.10;59.00
54938;DHT22;52756;52.826;6.214;2023-03-14T11:44:46;9.10;58.50
54938;DHT22;52756;52.826;6.214;2023-03-14T11:49:52;9.10;57.10
54938;DHT22;52756;52.826;6.214;2023-03-14T11:52:35;9.10;58.60
54938;DHT22;52756;52.826;6.214;2023-03-14T11:55:21;9.20;58.40
54938;DHT22;52756;52.826;6.214;2023-03-14T11:57:51;9.20;56.30
54938;DHT22;52756;52.826;6.214;2023-03-14T12:00:22;9.20;56.60
54938;DHT22;52756;52.826;6.214;2023-03-14T12:08:42;9.30;55.00
54938;DHT22;52756;52.826;6.214;2023-03-14T12:13:39;9.30;53.90
54938;DHT22;52756;52.826;6.214;2023-03-14T12:16:08;9.30;54.60
54938;DHT22;52756;52.826;6.214;2023-03-14T12:18:45;9.40;54.40
54938;DHT22;52756;52.826;6.214;2023-03-14T12:21:12;9.40;53.40
54938;DHT22;52756;52.826;6.214;2023-03-14T12:23:53;9.40;52.80
54938;DHT22;52756;52.826;6.214;2023-03-14T12:26:28;9.40;52.10
54938;DHT22;52756;52.826;6.214;2023-03-14T12:29:16;9.40;50.90
54938;DHT22;52756;52.826;6.214;2023-03-14T12:41:52;9.30;51.70
54938;DHT22;52756;52.826;6.214;2023-03-14T12:49:50;9.20;54.40
54938;DHT22;52756;52.826;6.214;2023-03-14T12:52:22;9.20;53.90
54938;DHT22;52756;52.826;6.214;2023-03-14T13:00:21;9.20;53.70
54938;DHT22;52756;52.826;6.214;2023-03-14T13:02:49;9.20;53.80
54938;DHT22;52756;52.826;6.214;2023-03-14T13:05:22;9.10;53.90
54938;DHT22;52756;52.826;6.214;2023-03-14T13:15:27;9.20;53.10
54938;DHT22;52756;52.826;6.214;2023-03-14T13:18:01;9.20;53.00
54938;DHT22;52756;52.826;6.214;2023-03-14T13:21:03;9.20;53.00
54938;DHT22;52756;52.826;6.214;2023-03-14T13:23:33;9.20;50.50
54938;DHT22;52756;52.826;6.214;2023-03-14T13:25:59;9.20;49.60
54938;DHT22;52756;52.826;6.214;2023-03-14T13:28:27;9.20;49.40
54938;DHT22;52756;52.826;6.214;2023-03-14T13:31:01;9.20;48.40
54938;DHT22;52756;52.826;6.214;2023-03-14T13:33:27;9.20;49.40
54938;DHT22;52756;52.826;6.214;2023-03-14T13:35:59;9.20;48.30
54938;DHT22;52756;52.826;6.214;2023-03-14T13:38:28;9.20;47.40
54938;DHT22;52756;52.826;6.214;2023-03-14T13:40:56;9.20;47.40
54938;DHT22;52756;52.826;6.214;2023-03-14T13:43:39;9.20;47.60
54938;DHT22;52756;52.826;6.214;2023-03-14T13:48:46;9.20;49.50
54938;DHT22;52756;52.826;6.214;2023-03-14T13:51:15;9.20;49.60
54938;DHT22;52756;52.826;6.214;2023-03-14T13:53:44;9.20;48.00
54938;DHT22;52756;52.826;6.214;2023-03-14T13:56:10;9.20;47.90
54938;DHT22;52756;52.826;6.214;2023-03-14T13:58:38;9.30;48.60
54938;DHT22;52756;52.826;6.214;2023-03-14T14:03:43;9.30;47.50
54938;DHT22;52756;52.826;6.214;2023-03-14T14:06:27;9.20;47.50
54938;DHT22;52756;52.826;6.214;2023-03-14T14:08:55;9.20;47.30
54938;DHT22;52756;52.826;6.214;2023-03-14T14:14:08;9.10;47.00
54938;DHT22;52756;52.826;6.214;2023-03-14T14:16:36;9.00;46.90
54938;DHT22;52756;52.826;6.214;2023-03-14T14:19:02;9.00;47.00
54938;DHT22;52756;52.826;6.214;2023-03-14T14:21:28;9.00;48.10
54938;DHT22;52756;52.826;6.214;2023-03-14T14:23:54;9.10;47.70
54938;DHT22;52756;52.826;6.214;2023-03-14T14:26:20;9.10;48.10
54938;DHT22;52756;52.826;6.214;2023-03-14T14:28:46;9.10;47.70
54938;DHT22;52756;52.826;6.214;2023-03-14T14:34:03;9.20;48.00
54938;DHT22;52756;52.826;6.214;2023-03-14T14:36:41;9.30;48.40
54938;DHT22;52756;52.826;6.214;2023-03-14T14:39:25;9.30;48.10
54938;DHT22;52756;52.826;6.214;2023-03-14T14:41:52;9.30;47.00
54938;DHT22;52756;52.826;6.214;2023-03-14T14:44:36;9.30;47.90
54938;DHT22;52756;52.826;6.214;2023-03-14T14:47:03;9.30;47.40
54938;DHT22;52756;52.826;6.214;2023-03-14T14:49:31;9.40;47.30
54938;DHT22;52756;52.826;6.214;2023-03-14T14:52:21;9.40;47.10
54938;DHT22;52756;52.826;6.214;2023-03-14T14:54:48;9.40;46.90
54938;DHT22;52756;52.826;6.214;2023-03-14T14:57:24;9.40;47.50
54938;DHT22;52756;52.826;6.214;2023-03-14T14:59:54;9.40;47.60
54938;DHT22;52756;52.826;6.214;2023-03-14T15:02:40;9.40;46.70
54938;DHT22;52756;52.826;6.214;2023-03-14T15:05:22;9.40;46.50
54938;DHT22;52756;52.826;6.214;2023-03-14T15:07:48;9.40;46.70
54938;DHT22;52756;52.826;6.214;2023-03-14T15:10:16;9.30;46.10
54938;DHT22;52756;52.826;6.214;2023-03-14T15:12:42;9.30;46.50
54938;DHT22;52756;52.826;6.214;2023-03-14T15:15:09;9.20;45.90
54938;DHT22;52756;52.826;6.214;2023-03-14T15:17:35;9.20;47.20
54938;DHT22;52756;52.826;6.214;2023-03-14T15:20:09;9.20;47.80
54938;DHT22;52756;52.826;6.214;2023-03-14T15:22:35;9.20;48.50
54938;DHT22;52756;52.826;6.214;2023-03-14T15:25:00;9.20;49.50
54938;DHT22;52756;52.826;6.214;2023-03-14T15:27:28;9.10;51.70
54938;DHT22;52756;52.826;6.214;2023-03-14T15:29:55;9.10;52.70
54938;DHT22;52756;52.826;6.214;2023-03-14T15:32:21;9.00;52.90
54938;DHT22;52756;52.826;6.214;2023-03-14T15:34:47;9.00;53.30
54938;DHT22;52756;52.826;6.214;2023-03-14T15:37:14;8.90;53.00
54938;DHT22;52756;52.826;6.214;2023-03-14T15:39:42;8.90;53.30
54938;DHT22;52756;52.826;6.214;2023-03-14T15:42:08;8.80;53.00
54938;DHT22;52756;52.826;6.214;2023-03-14T15:44:34;8.70;52.80
54938;DHT22;52756;52.826;6.214;2023-03-14T15:47:00;8.70;53.30
54938;DHT22;52756;52.826;6.214;2023-03-14T15:49:26;8.70;53.00
54938;DHT22;52756;52.826;6.214;2023-03-14T15:51:52;8.60;53.10
54938;DHT22;52756;52.826;6.214;2023-03-14T15:54:18;8.60;53.30
54938;DHT22;52756;52.826;6.214;2023-03-14T15:56:43;8.50;53.80
54938;DHT22;52756;52.826;6.214;2023-03-14T15:59:09;8.50;53.10
54938;DHT22;52756;52.826;6.214;2023-03-14T16:01:35;8.50;52.40
54938;DHT22;52756;52.826;6.214;2023-03-14T16:04:03;8.40;51.40
54938;DHT22;52756;52.826;6.214;2023-03-14T16:06:29;8.40;51.10
54938;DHT22;52756;52.826;6.214;2023-03-14T16:08:56;8.30;51.40
54938;DHT22;52756;52.826;6.214;2023-03-14T16:11:22;8.30;51.10
54938;DHT22;52756;52.826;6.214;2023-03-14T16:13:48;8.30;51.00
54938;DHT22;52756;52.826;6.214;2023-03-14T16:16:14;8.20;50.80
54938;DHT22;52756;52.826;6.214;2023-03-14T16:18:40;8.20;50.50
54938;DHT22;52756;52.826;6.214;2023-03-14T16:21:14;8.20;50.70
54938;DHT22;52756;52.826;6.214;2023-03-14T16:23:40;8.20;51.50
54938;DHT22;52756;52.826;6.214;2023-03-14T16:26:08;8.20;52.50
54938;DHT22;52756;52.826;6.214;2023-03-14T16:28:34;8.10;53.40
54938;DHT22;52756;52.826;6.214;2023-03-14T16:31:02;8.00;53.90
54938;DHT22;52756;52.826;6.214;2023-03-14T16:33:28;7.90;54.60
54938;DHT22;52756;52.826;6.214;2023-03-14T16:35:58;7.80;55.10
54938;DHT22;52756;52.826;6.214;2023-03-14T16:38:26;7.70;55.10
54938;DHT22;52756;52.826;6.214;2023-03-14T16:41:18;7.70;55.20
54938;DHT22;52756;52.826;6.214;2023-03-14T16:43:45;7.60;55.30
54938;DHT22;52756;52.826;6.214;2023-03-14T16:46:14;7.50;55.20
54938;DHT22;52756;52.826;6.214;2023-03-14T16:48:41;7.40;54.40
54938;DHT22;52756;52.826;6.214;2023-03-14T16:51:07;7.40;53.40
54938;DHT22;52756;52.826;6.214;2023-03-14T16:53:32;7.30;52.70
54938;DHT22;52756;52.826;6.214;2023-03-14T16:55:58;7.30;52.50
54938;DHT22;52756;52.826;6.214;2023-03-14T16:58:25;7.20;51.90
54938;DHT22;52756;52.826;6.214;2023-03-14T17:00:51;7.10;51.70
54938;DHT22;52756;52.826;6.214;2023-03-14T17:03:17;7.10;51.30
54938;DHT22;52756;52.826;6.214;2023-03-14T17:05:47;7.00;51.90
54938;DHT22;52756;52.826;6.214;2023-03-14T17:08:15;7.00;52.10
54938;DHT22;52756;52.826;6.214;2023-03-14T17:10:41;6.90;52.30
54938;DHT22;52756;52.826;6.214;2023-03-14T17:13:06;6.90;52.60
54938;DHT22;52756;52.826;6.214;2023-03-14T17:15:32;6.80;53.10
54938;DHT22;52756;52.826;6.214;2023-03-14T17:17:58;6.80;53.70